ICE681 BIKF-KSEA
Flight info
| Callsign | ICE681 |
|---|---|
| Flight time | N/A |
| Altitude | 34000 |
| Route | SORIR3A SORIR DCT SUKED DCT 6630N DCT 6840N DCT 6950N DCT 6960N/M079F360 DCT BOPUT/N0453F360 DCT 6970N DCT 6880N DCT 66N090W 63N100W DCT 58N10 DCT YZU DCT YNY DCT 49N120W DCT JAKSN GLASR3 |
| Aircraft | A21N/M-SDE2E3FGHIJ1RWXY/LB1 |
Departure
| Time | 2026-05-04 21:35 |
|---|---|
| Airport | Keflavik International Airport (BIKF) |
Arrival
| Time | N/A |
|---|---|
| Airport | Seattle–Tacoma International Airport (KSEA) |
| Time | Latitude | Longitude | Altitude | Speed | Heading |
|---|---|---|---|---|---|
| 2026-05-04 21:06 | 63.99323 | -22.61794 | 143 ft | 0 kts | 90° |
| 2026-05-04 21:23 | 63.99323 | -22.61816 | 143 ft | 2 kts | 89° |
| 2026-05-04 21:23 | 63.99322 | -22.61850 | 143 ft | 2 kts | 90° |
| 2026-05-04 21:23 | 63.99323 | -22.61884 | 144 ft | 2 kts | 90° |
| 2026-05-04 21:24 | 63.99322 | -22.61918 | 143 ft | 2 kts | 90° |
| 2026-05-04 21:24 | 63.99322 | -22.61953 | 143 ft | 2 kts | 90° |
| 2026-05-04 21:24 | 63.99325 | -22.61985 | 143 ft | 2 kts | 133° |
| 2026-05-04 21:24 | 63.99337 | -22.62000 | 144 ft | 0 kts | 174° |
| 2026-05-04 21:25 | 63.99343 | -22.62000 | 144 ft | 1 kts | 182° |
| 2026-05-04 21:25 | 63.99345 | -22.62000 | 144 ft | 0 kts | 180° |
| 2026-05-04 21:26 | 63.99330 | -22.62000 | 143 ft | 6 kts | 179° |
| 2026-05-04 21:27 | 63.99267 | -22.61999 | 144 ft | 12 kts | 179° |
| 2026-05-04 21:27 | 63.99181 | -22.61952 | 143 ft | 13 kts | 121° |
| 2026-05-04 21:27 | 63.99172 | -22.61737 | 144 ft | 13 kts | 90° |
| 2026-05-04 21:27 | 63.99172 | -22.61516 | 143 ft | 13 kts | 89° |
| 2026-05-04 21:28 | 63.99173 | -22.61296 | 144 ft | 13 kts | 90° |
| 2026-05-04 21:28 | 63.99173 | -22.61106 | 147 ft | 11 kts | 90° |
| 2026-05-04 21:28 | 63.99146 | -22.60950 | 147 ft | 11 kts | 164° |
| 2026-05-04 21:28 | 63.99065 | -22.60945 | 147 ft | 11 kts | 180° |
| 2026-05-04 21:29 | 63.98981 | -22.60948 | 147 ft | 12 kts | 180° |
| 2026-05-04 21:29 | 63.98900 | -22.60950 | 149 ft | 11 kts | 180° |
| 2026-05-04 21:29 | 63.98788 | -22.60944 | 151 ft | 18 kts | 178° |
| 2026-05-04 21:29 | 63.98661 | -22.60948 | 151 ft | 18 kts | 179° |
| 2026-05-04 21:30 | 63.98535 | -22.60947 | 151 ft | 18 kts | 179° |
| 2026-05-04 21:30 | 63.98407 | -22.60944 | 152 ft | 18 kts | 179° |
| 2026-05-04 21:30 | 63.98286 | -22.60945 | 155 ft | 17 kts | 180° |
| 2026-05-04 21:30 | 63.98165 | -22.60947 | 155 ft | 19 kts | 179° |
| 2026-05-04 21:31 | 63.97875 | -22.60946 | 152 ft | 21 kts | 181° |
| 2026-05-04 21:31 | 63.97723 | -22.60950 | 151 ft | 21 kts | 179° |
| 2026-05-04 21:31 | 63.97574 | -22.60948 | 150 ft | 21 kts | 181° |
| 2026-05-04 21:32 | 63.97421 | -22.60952 | 146 ft | 22 kts | 179° |
| 2026-05-04 21:32 | 63.97263 | -22.60949 | 143 ft | 23 kts | 179° |
| 2026-05-04 21:32 | 63.97102 | -22.60949 | 139 ft | 24 kts | 179° |
| 2026-05-04 21:32 | 63.96931 | -22.60949 | 134 ft | 25 kts | 180° |
| 2026-05-04 21:33 | 63.96744 | -22.60951 | 127 ft | 27 kts | 180° |
| 2026-05-04 21:33 | 63.96564 | -22.60951 | 120 ft | 20 kts | 179° |
| 2026-05-04 21:33 | 63.96464 | -22.60877 | 117 ft | 15 kts | 112° |
| 2026-05-04 21:33 | 63.96460 | -22.60647 | 118 ft | 14 kts | 86° |
| 2026-05-04 21:34 | 63.96515 | -22.60548 | 123 ft | 10 kts | 1° |
| 2026-05-04 21:34 | 63.96675 | -22.60543 | 127 ft | 55 kts | 0° |
| 2026-05-04 21:34 | 63.97297 | -22.60546 | 149 ft | 123 kts | 0° |
| 2026-05-04 21:34 | 63.98322 | -22.60536 | 314 ft | 163 kts | 1° |
| 2026-05-04 21:35 | 63.99432 | -22.60517 | 968 ft | 159 kts | 1° |
| 2026-05-04 21:35 | 64.00530 | -22.60506 | 1521 ft | 159 kts | 1° |
| 2026-05-04 21:35 | 64.01642 | -22.60502 | 2018 ft | 164 kts | 1° |
| 2026-05-04 21:35 | 64.02831 | -22.60496 | 2344 ft | 179 kts | 1° |
| 2026-05-04 21:36 | 64.04127 | -22.60494 | 2642 ft | 196 kts | 360° |
| 2026-05-04 21:36 | 64.05530 | -22.61128 | 2897 ft | 220 kts | 333° |
| 2026-05-04 21:36 | 64.06680 | -22.63570 | 3246 ft | 243 kts | 302° |
| 2026-05-04 21:36 | 64.07252 | -22.67339 | 3759 ft | 257 kts | 287° |
| 2026-05-04 21:37 | 64.07708 | -22.71233 | 4522 ft | 257 kts | 288° |
| 2026-05-04 21:37 | 64.08193 | -22.75137 | 5342 ft | 256 kts | 289° |
| 2026-05-04 21:37 | 64.08680 | -22.79001 | 6120 ft | 255 kts | 289° |
| 2026-05-04 21:37 | 64.09164 | -22.82848 | 6857 ft | 256 kts | 288° |
| 2026-05-04 21:38 | 64.09649 | -22.86715 | 7605 ft | 256 kts | 289° |
| 2026-05-04 21:38 | 64.10133 | -22.90599 | 8363 ft | 255 kts | 289° |
| 2026-05-04 21:38 | 64.10613 | -22.94452 | 9116 ft | 253 kts | 289° |
| 2026-05-04 21:38 | 64.11095 | -22.98319 | 9771 ft | 255 kts | 289° |
| 2026-05-04 21:39 | 64.11573 | -23.02167 | 10433 ft | 255 kts | 289° |
| 2026-05-04 21:39 | 64.12061 | -23.06103 | 10923 ft | 263 kts | 289° |
| 2026-05-04 21:39 | 64.12575 | -23.10241 | 11198 ft | 277 kts | 289° |
| 2026-05-04 21:39 | 64.13107 | -23.14527 | 11461 ft | 290 kts | 289° |
| 2026-05-04 21:40 | 64.13663 | -23.19057 | 11841 ft | 299 kts | 289° |
| 2026-05-04 21:40 | 64.14224 | -23.23651 | 12425 ft | 301 kts | 289° |
| 2026-05-04 21:40 | 64.14782 | -23.28238 | 13072 ft | 301 kts | 289° |
| 2026-05-04 21:40 | 64.15343 | -23.32853 | 13680 ft | 301 kts | 288° |
| 2026-05-04 21:41 | 64.15900 | -23.37455 | 14265 ft | 302 kts | 288° |
| 2026-05-04 21:41 | 64.16449 | -23.42019 | 14857 ft | 301 kts | 288° |
| 2026-05-04 21:41 | 64.17007 | -23.46649 | 15389 ft | 303 kts | 289° |
| 2026-05-04 21:41 | 64.17571 | -23.51230 | 15894 ft | 304 kts | 290° |
| 2026-05-04 21:42 | 64.18243 | -23.55804 | 16406 ft | 304 kts | 292° |
| 2026-05-04 21:42 | 64.19038 | -23.60324 | 16901 ft | 305 kts | 295° |
| 2026-05-04 21:42 | 64.19907 | -23.64711 | 17372 ft | 306 kts | 296° |
| 2026-05-04 21:42 | 64.20795 | -23.69165 | 17820 ft | 308 kts | 296° |
| 2026-05-04 21:43 | 64.21685 | -23.73620 | 18269 ft | 309 kts | 295° |
| 2026-05-04 21:43 | 64.22578 | -23.78093 | 18704 ft | 311 kts | 295° |
| 2026-05-04 21:43 | 64.23470 | -23.82573 | 19153 ft | 312 kts | 295° |
| 2026-05-04 21:43 | 64.24371 | -23.87102 | 19572 ft | 313 kts | 295° |
| 2026-05-04 21:44 | 64.25271 | -23.91638 | 19947 ft | 316 kts | 295° |
| 2026-05-04 21:44 | 64.26188 | -23.96263 | 20337 ft | 318 kts | 295° |
| 2026-05-04 21:44 | 64.27102 | -24.00883 | 20703 ft | 320 kts | 295° |
| 2026-05-04 21:44 | 64.28014 | -24.05515 | 21063 ft | 322 kts | 295° |
| 2026-05-04 21:45 | 64.28932 | -24.10179 | 21428 ft | 323 kts | 295° |
| 2026-05-04 21:45 | 64.29851 | -24.14861 | 21771 ft | 325 kts | 295° |
| 2026-05-04 21:45 | 64.30788 | -24.19644 | 22122 ft | 327 kts | 295° |
| 2026-05-04 21:45 | 64.31721 | -24.24408 | 22458 ft | 329 kts | 295° |
| 2026-05-04 21:46 | 64.32655 | -24.29193 | 22780 ft | 330 kts | 295° |
| 2026-05-04 21:46 | 64.33588 | -24.34002 | 23086 ft | 332 kts | 295° |
| 2026-05-04 21:46 | 64.34528 | -24.38843 | 23399 ft | 334 kts | 295° |
| 2026-05-04 21:46 | 64.35476 | -24.43745 | 23704 ft | 335 kts | 295° |
| 2026-05-04 21:47 | 64.36425 | -24.48669 | 23975 ft | 337 kts | 295° |
| 2026-05-04 21:47 | 64.37368 | -24.53565 | 24268 ft | 339 kts | 295° |
| 2026-05-04 21:47 | 64.38331 | -24.58574 | 24548 ft | 341 kts | 295° |
| 2026-05-04 21:47 | 64.39304 | -24.63481 | 24805 ft | 342 kts | 297° |
| 2026-05-04 21:48 | 64.40430 | -24.68351 | 25095 ft | 344 kts | 299° |
| 2026-05-04 21:48 | 64.41688 | -24.73048 | 25369 ft | 346 kts | 302° |
| 2026-05-04 21:48 | 64.43073 | -24.77599 | 25617 ft | 348 kts | 304° |
| 2026-05-04 21:48 | 64.44500 | -24.82114 | 25884 ft | 350 kts | 304° |
| 2026-05-04 21:49 | 64.45921 | -24.86599 | 26167 ft | 351 kts | 304° |
| 2026-05-04 21:49 | 64.47358 | -24.91133 | 26436 ft | 352 kts | 304° |
| 2026-05-04 21:49 | 64.48810 | -24.95733 | 26659 ft | 354 kts | 304° |
| 2026-05-04 21:49 | 64.50254 | -25.00302 | 26913 ft | 355 kts | 304° |
| 2026-05-04 21:50 | 64.51713 | -25.04934 | 27175 ft | 356 kts | 304° |
| 2026-05-04 21:50 | 64.53156 | -25.09525 | 27389 ft | 357 kts | 304° |
| 2026-05-04 21:50 | 64.54625 | -25.14203 | 27596 ft | 359 kts | 304° |
| 2026-05-04 21:50 | 64.56098 | -25.18905 | 27829 ft | 360 kts | 304° |
| 2026-05-04 21:51 | 64.57567 | -25.23600 | 28046 ft | 362 kts | 304° |
| 2026-05-04 21:51 | 64.59040 | -25.28319 | 28241 ft | 364 kts | 304° |
| 2026-05-04 21:51 | 64.60523 | -25.33085 | 28461 ft | 365 kts | 304° |
| 2026-05-04 21:51 | 64.62002 | -25.37844 | 28663 ft | 366 kts | 304° |
| 2026-05-04 21:52 | 64.63492 | -25.42649 | 28868 ft | 367 kts | 304° |
| 2026-05-04 21:52 | 64.64971 | -25.47435 | 29089 ft | 368 kts | 304° |
| 2026-05-04 21:52 | 64.66466 | -25.52274 | 29286 ft | 369 kts | 304° |
| 2026-05-04 21:52 | 64.67971 | -25.57160 | 29462 ft | 371 kts | 304° |
| 2026-05-04 21:53 | 64.69453 | -25.61985 | 29647 ft | 372 kts | 304° |
| 2026-05-04 21:53 | 64.70962 | -25.66901 | 29849 ft | 373 kts | 303° |
| 2026-05-04 21:53 | 64.72469 | -25.71826 | 30054 ft | 374 kts | 303° |
| 2026-05-04 21:53 | 64.73971 | -25.76743 | 30248 ft | 375 kts | 303° |
| 2026-05-04 21:54 | 64.75483 | -25.81703 | 30489 ft | 374 kts | 303° |
| 2026-05-04 21:54 | 64.76979 | -25.86624 | 30738 ft | 374 kts | 303° |
| 2026-05-04 21:54 | 64.78489 | -25.91603 | 30969 ft | 374 kts | 303° |
| 2026-05-04 21:54 | 64.79969 | -25.96491 | 31201 ft | 373 kts | 303° |
| 2026-05-04 21:55 | 64.81470 | -26.01462 | 31446 ft | 373 kts | 303° |
| 2026-05-04 21:55 | 64.82965 | -26.06424 | 31680 ft | 373 kts | 303° |
| 2026-05-04 21:55 | 64.84444 | -26.11344 | 31899 ft | 373 kts | 303° |
| 2026-05-04 21:55 | 64.85926 | -26.16286 | 32122 ft | 373 kts | 303° |
| 2026-05-04 21:56 | 64.87408 | -26.21242 | 32316 ft | 373 kts | 303° |
| 2026-05-04 21:56 | 64.88892 | -26.26205 | 32540 ft | 373 kts | 303° |
| 2026-05-04 21:56 | 64.90371 | -26.31176 | 32715 ft | 374 kts | 303° |
| 2026-05-04 21:56 | 64.91856 | -26.36169 | 32857 ft | 375 kts | 303° |
| 2026-05-04 21:57 | 64.93361 | -26.41239 | 33024 ft | 376 kts | 303° |
| 2026-05-04 21:57 | 64.94847 | -26.46263 | 33178 ft | 376 kts | 303° |
| 2026-05-04 21:57 | 64.96331 | -26.51296 | 33341 ft | 377 kts | 303° |
| 2026-05-04 21:57 | 64.97820 | -26.56350 | 33472 ft | 378 kts | 303° |
| 2026-05-04 21:58 | 64.99332 | -26.61453 | 33607 ft | 379 kts | 304° |
| 2026-05-04 21:58 | 65.00906 | -26.66457 | 33743 ft | 380 kts | 305° |
| 2026-05-04 21:58 | 65.02473 | -26.71362 | 33879 ft | 380 kts | 305° |
| 2026-05-04 21:58 | 65.04073 | -26.76366 | 34018 ft | 380 kts | 305° |
| 2026-05-04 21:59 | 65.05654 | -26.81328 | 34156 ft | 380 kts | 305° |
| 2026-05-04 21:59 | 65.07251 | -26.86346 | 34289 ft | 381 kts | 305° |
| 2026-05-04 21:59 | 65.08826 | -26.91314 | 34312 ft | 383 kts | 305° |
| 2026-05-04 22:00 | 65.11993 | -27.01346 | 34314 ft | 382 kts | 305° |
| 2026-05-04 22:00 | 65.15163 | -27.11429 | 34272 ft | 382 kts | 305° |
| 2026-05-04 22:01 | 65.18333 | -27.21555 | 34312 ft | 383 kts | 305° |
| 2026-05-04 22:01 | 65.21496 | -27.31710 | 34347 ft | 383 kts | 305° |